Meredithville, VA (23873)

12:09 AM EDT on August 23, 2014 (GMT -0400)
Mecklenburg-Brunswick Regional | Change Station
CLOSE
Current Station
Airport
Location: South Hill,
Elevation: 443 ft
Nearby Weather Stations

Elev 443 ft 36.69 °N, 78.05 °W | Updated 14 minutes ago

Clear
Clear
75 °F
Feels Like 75 °F
N
0
Wind Variable Wind from North

Today
High -- | Low -- °F
--% Chance of Precip.
Yesterday
High -- | Low -- °F
Precip. -- in
6:35 AM 7:52 PM
Waning Crescent, 5% visible
Pressure 30.03 in
Visibility 7.0 miles
Clouds Clear
Dew Point 75 °F
Humidity 100%
Rainfall 0.00 in
Snow Depth Not available.
UV 0 out of 12
Pollen 8.80 out of 12
Air Quality Not available.
Flu Activity Not available.
METAR KAVC 230355Z AUTO 00000KT 7SM CLR 24/24 A3003 RMK AO2

More Conditions Fewer Conditions

Pressure 30.03 in
Visibility 7.0 miles
Clouds Clear
Dew Point 75 °F
Humidity 100%
Rainfall 0.00 in
Snow Depth Not available.
UV 0 out of 12
Pollen 8.80 out of 12
Air Quality Not available.
Flu Activity Not available.
METAR KAVC 230355Z AUTO 00000KT 7SM CLR 24/24 A3003 RMK AO2

More Conditions Fewer Conditions

10-Day Weather Forecast

Almanac

Astronomy

Aug. 23, 2014 Rise Set
Actual Time 6:35 AM EDT 7:52 PM EDT
Civil Twilight 6:08 AM EDT 8:19 PM EDT
Nautical Twilight 5:36 AM EDT 8:51 PM EDT
Astronomical Twilight 5:02 AM EDT 9:25 PM EDT
Moon 4:51 AM EDT 6:35 PM EDT
Length of Visible Light 14h 11m
Length of Day
13h 17m
Tomorrow will be 2m 10s shorter.
Waning Crescent, 5% of the Moon is Illuminated
Today
Waning Crescent
Aug 25
New
Sep 2
First Quarter
Sep 8
Full
Sep 15
Last Quarter

Yesterday's Extremes

State Highs State Lows

Community

WunderPhotos

Upload Photos

1,746,351 photos uploaded!

WunderBlogs® & News

Nearby

Snow Depth

Station Depth Elevation
No new snow has been reported.

Earthquake Activity

City Distance Mag. Time & Date
No recent earthquake activity has been reported nearby.
Minimum magnitude displayed is 2.5.

Coastal Water Temperatures

Place Temperature
No Stations Reporting

Nearby Weather Stations